createdAt,value
2019-03-23T00:00:56.482Z,1021.37
2019-03-23T00:01:56.462Z,1021.41
2019-03-23T00:02:56.458Z,1021.38
2019-03-23T00:03:56.440Z,1021.41
2019-03-23T00:04:56.428Z,1021.44
2019-03-23T00:05:56.417Z,1021.42
2019-03-23T00:06:56.405Z,1021.43
2019-03-23T00:07:56.402Z,1021.43
2019-03-23T00:08:56.384Z,1021.38
2019-03-23T00:09:58.665Z,1021.41
2019-03-23T00:10:56.363Z,1021.43
2019-03-23T00:11:56.352Z,1021.46
2019-03-23T00:12:56.346Z,1021.43
2019-03-23T00:13:56.337Z,1021.45
2019-03-23T00:14:56.317Z,1021.46
2019-03-23T00:15:56.307Z,1021.45
2019-03-23T00:16:56.295Z,1021.48
2019-03-23T00:17:56.294Z,1021.54
2019-03-23T00:18:56.272Z,1021.52
2019-03-23T00:19:56.278Z,1021.53
2019-03-23T00:20:56.317Z,1021.54
2019-03-23T00:21:56.297Z,1021.57
2019-03-23T00:22:56.274Z,1021.55
2019-03-23T00:23:56.330Z,1021.53
2019-03-23T00:24:56.246Z,1021.55
2019-03-23T00:25:56.228Z,1021.51
2019-03-23T00:26:56.213Z,1021.50
2019-03-23T00:27:56.182Z,1021.55
2019-03-23T00:28:56.169Z,1021.57
2019-03-23T00:29:56.150Z,1021.54
2019-03-23T00:30:56.137Z,1021.56
2019-03-23T00:31:56.138Z,1021.59
2019-03-23T00:32:56.161Z,1021.57
2019-03-23T00:33:56.112Z,1021.58
2019-03-23T00:34:56.125Z,1021.63
2019-03-23T00:35:56.080Z,1021.62
2019-03-23T00:36:56.073Z,1021.58
2019-03-23T00:37:56.096Z,1021.62
2019-03-23T00:38:56.076Z,1021.66
2019-03-23T00:39:56.037Z,1021.60
2019-03-23T00:40:56.024Z,1021.70
2019-03-23T00:41:56.014Z,1021.64
2019-03-23T00:42:56.003Z,1021.65
2019-03-23T00:43:56.020Z,1021.66
2019-03-23T00:44:55.984Z,1021.69
2019-03-23T00:45:55.998Z,1021.63
2019-03-23T00:46:55.957Z,1021.63
2019-03-23T00:47:55.946Z,1021.62
2019-03-23T00:48:55.952Z,1021.65
2019-03-23T00:49:55.923Z,1021.62
2019-03-23T00:50:55.914Z,1021.61
2019-03-23T00:51:55.903Z,1021.64
2019-03-23T00:52:55.890Z,1021.62
2019-03-23T00:53:55.895Z,1021.63
2019-03-23T00:54:55.871Z,1021.65
2019-03-23T00:55:55.871Z,1021.67
2019-03-23T00:56:55.875Z,1021.65
2019-03-23T00:57:55.834Z,1021.65
2019-03-23T00:58:55.838Z,1021.69
2019-03-23T00:59:55.818Z,1021.68
2019-03-23T01:00:55.806Z,1021.67
2019-03-23T01:01:55.797Z,1021.67
2019-03-23T01:02:55.782Z,1021.73
2019-03-23T01:03:55.781Z,1021.65
2019-03-23T01:04:55.760Z,1021.63
2019-03-23T01:05:55.762Z,1021.66
2019-03-23T01:06:55.742Z,1021.66
2019-03-23T01:07:55.724Z,1021.67
2019-03-23T01:08:55.719Z,1021.64
2019-03-23T01:09:55.717Z,1021.69
2019-03-23T01:10:55.699Z,1021.66
2019-03-23T01:11:55.691Z,1021.63
2019-03-23T01:12:55.671Z,1021.71
2019-03-23T01:13:55.675Z,1021.71
2019-03-23T01:14:55.653Z,1021.71
2019-03-23T01:15:55.634Z,1021.71
2019-03-23T01:16:55.625Z,1021.70
2019-03-23T01:17:55.613Z,1021.61
2019-03-23T01:18:55.600Z,1021.67
2019-03-23T01:19:55.596Z,1021.70
2019-03-23T01:20:55.579Z,1021.70
2019-03-23T01:21:55.589Z,1021.69
2019-03-23T01:22:55.560Z,1021.65
2019-03-23T01:23:55.543Z,1021.66
2019-03-23T01:24:55.542Z,1021.58
2019-03-23T01:25:55.543Z,1021.66
2019-03-23T01:26:55.519Z,1021.67
2019-03-23T01:27:55.499Z,1021.60
2019-03-23T01:28:55.495Z,1021.68
2019-03-23T01:29:55.490Z,1021.73
2019-03-23T01:30:55.465Z,1021.67
2019-03-23T01:31:55.481Z,1021.72
2019-03-23T01:32:55.443Z,1021.63
2019-03-23T01:33:55.437Z,1021.64
2019-03-23T01:34:55.430Z,1021.64
2019-03-23T01:35:55.410Z,1021.63
2019-03-23T01:37:02.769Z,1021.59
2019-03-23T01:37:56.386Z,1021.66
2019-03-23T01:38:55.377Z,1021.66
2019-03-23T01:39:55.374Z,1021.63
2019-03-23T01:40:55.358Z,1021.68
2019-03-23T01:41:55.340Z,1021.76
2019-03-23T01:42:55.332Z,1021.70
2019-03-23T01:43:55.319Z,1021.71
2019-03-23T01:44:55.320Z,1021.71
2019-03-23T01:45:55.297Z,1021.69
2019-03-23T01:46:55.300Z,1021.69
2019-03-23T01:47:55.289Z,1021.77
2019-03-23T01:48:55.263Z,1021.70
2019-03-23T01:49:55.262Z,1021.68
2019-03-23T01:50:55.240Z,1021.77
2019-03-23T01:51:55.229Z,1021.74
2019-03-23T01:52:55.219Z,1021.78
2019-03-23T01:53:55.209Z,1021.79
2019-03-23T01:54:55.207Z,1021.70
2019-03-23T01:55:55.187Z,1021.78
2019-03-23T01:56:55.172Z,1021.80
2019-03-23T01:57:55.168Z,1021.79
2019-03-23T01:58:55.151Z,1021.72
2019-03-23T01:59:55.150Z,1021.73
2019-03-23T02:00:55.128Z,1021.74
2019-03-23T02:01:55.123Z,1021.80
2019-03-23T02:02:55.105Z,1021.81
2019-03-23T02:03:55.096Z,1021.70
2019-03-23T02:04:55.083Z,1021.74
2019-03-23T02:05:55.111Z,1021.75
2019-03-23T02:06:55.060Z,1021.71
2019-03-23T02:07:55.055Z,1021.82
2019-03-23T02:08:55.041Z,1021.76
2019-03-23T02:09:55.029Z,1021.79
2019-03-23T02:10:55.026Z,1021.85
2019-03-23T02:11:55.009Z,1021.88
2019-03-23T02:12:54.998Z,1021.91
2019-03-23T02:13:54.984Z,1021.93
2019-03-23T02:14:54.976Z,1021.80
2019-03-23T02:15:54.968Z,1021.89
2019-03-23T02:16:54.950Z,1021.89
2019-03-23T02:17:54.939Z,1021.94
2019-03-23T02:18:54.928Z,1021.93
2019-03-23T02:19:54.916Z,1021.93
2019-03-23T02:20:54.916Z,1021.98
2019-03-23T02:21:54.893Z,1021.97
2019-03-23T02:22:54.885Z,1021.97
2019-03-23T02:23:54.871Z,1021.97
2019-03-23T02:24:54.886Z,1021.97
2019-03-23T02:25:54.860Z,1021.98
2019-03-23T02:26:54.840Z,1021.96
2019-03-23T02:27:54.824Z,1021.99
2019-03-23T02:28:54.824Z,1021.96
2019-03-23T02:29:54.807Z,1022.01
2019-03-23T02:30:54.803Z,1022.06
2019-03-23T02:31:54.780Z,1022.04
2019-03-23T02:32:54.771Z,1022.07
2019-03-23T02:33:54.769Z,1022.13
2019-03-23T02:34:54.750Z,1022.17
2019-03-23T02:35:54.750Z,1022.17
2019-03-23T02:36:54.726Z,1022.14
2019-03-23T02:37:54.715Z,1022.16
2019-03-23T02:38:54.703Z,1022.19
2019-03-23T02:39:54.692Z,1022.16
2019-03-23T02:40:54.690Z,1022.15
2019-03-23T02:41:54.670Z,1022.23
2019-03-23T02:42:54.663Z,1022.22
2019-03-23T02:43:54.648Z,1022.19
2019-03-23T02:44:54.638Z,1022.25
2019-03-23T02:45:54.638Z,1022.22
2019-03-23T02:46:54.613Z,1022.28
2019-03-23T02:47:54.612Z,1022.25
2019-03-23T02:48:54.592Z,1022.25
2019-03-23T02:49:54.580Z,1022.29
2019-03-23T02:50:54.571Z,1022.35
2019-03-23T02:51:54.567Z,1022.33
2019-03-23T02:52:54.550Z,1022.35
2019-03-23T02:53:54.538Z,1022.28
2019-03-23T02:54:54.525Z,1022.35
2019-03-23T02:55:54.512Z,1022.34
2019-03-23T02:56:54.513Z,1022.35
2019-03-23T02:57:54.498Z,1022.32
2019-03-23T02:58:54.484Z,1022.32
2019-03-23T02:59:54.467Z,1022.38
2019-03-23T03:00:54.458Z,1022.42
2019-03-23T03:01:54.461Z,1022.39
2019-03-23T03:02:54.437Z,1022.37
2019-03-23T03:03:54.424Z,1022.40
2019-03-23T03:04:54.410Z,1022.40
2019-03-23T03:05:54.402Z,1022.39
2019-03-23T03:06:54.403Z,1022.36
2019-03-23T03:07:54.391Z,1022.34
2019-03-23T03:08:54.368Z,1022.40
2019-03-23T03:09:54.356Z,1022.44
2019-03-23T03:10:54.353Z,1022.42
2019-03-23T03:11:54.343Z,1022.40
2019-03-23T03:12:54.333Z,1022.43
2019-03-23T03:13:54.318Z,1022.47
2019-03-23T03:14:54.305Z,1022.40
2019-03-23T03:15:54.289Z,1022.45
2019-03-23T03:16:54.287Z,1022.44
2019-03-23T03:17:54.266Z,1022.45
2019-03-23T03:18:54.271Z,1022.46
2019-03-23T03:19:54.256Z,1022.50
2019-03-23T03:20:54.271Z,1022.53
2019-03-23T03:21:54.233Z,1022.50
2019-03-23T03:22:54.214Z,1022.50
2019-03-23T03:23:54.208Z,1022.51
2019-03-23T03:24:54.187Z,1022.46
2019-03-23T03:25:54.180Z,1022.53
2019-03-23T03:26:54.182Z,1022.54
2019-03-23T03:27:54.157Z,1022.56
2019-03-23T03:28:54.159Z,1022.52
2019-03-23T03:29:54.133Z,1022.65
2019-03-23T03:30:54.133Z,1022.68
2019-03-23T03:31:54.119Z,1022.70
2019-03-23T03:32:54.166Z,1022.70
2019-03-23T03:33:54.104Z,1022.71
2019-03-23T03:34:54.086Z,1022.76
2019-03-23T03:35:54.069Z,1022.77
2019-03-23T03:36:54.059Z,1022.74
2019-03-23T03:37:56.813Z,1022.73
2019-03-23T03:38:54.036Z,1022.79
2019-03-23T03:39:54.022Z,1022.76
2019-03-23T03:40:54.011Z,1022.84
2019-03-23T03:41:53.999Z,1022.83
2019-03-23T03:42:53.999Z,1022.86
2019-03-23T03:43:53.995Z,1022.83
2019-03-23T03:44:53.982Z,1022.82
2019-03-23T03:45:53.957Z,1022.82
2019-03-23T03:46:53.943Z,1022.81
2019-03-23T03:47:53.942Z,1022.86
2019-03-23T03:48:53.928Z,1022.76
2019-03-23T03:49:53.910Z,1022.78
2019-03-23T03:50:53.901Z,1022.85
2019-03-23T03:51:53.889Z,1022.83
2019-03-23T03:52:53.897Z,1022.89
2019-03-23T03:53:53.868Z,1022.80
2019-03-23T03:54:53.858Z,1022.88
2019-03-23T03:55:53.844Z,1022.87
2019-03-23T03:56:53.833Z,1022.89
2019-03-23T03:57:53.831Z,1022.87
2019-03-23T03:58:53.812Z,1022.88
2019-03-23T03:59:53.799Z,1022.89
2019-03-23T04:00:53.795Z,1022.90
2019-03-23T04:01:53.777Z,1022.91
2019-03-23T04:02:53.775Z,1022.90
2019-03-23T04:03:53.756Z,1022.92
2019-03-23T04:04:53.760Z,1022.88
2019-03-23T04:05:53.734Z,1022.86
2019-03-23T04:06:53.720Z,1022.87
2019-03-23T04:07:53.725Z,1022.88
2019-03-23T04:08:53.702Z,1022.89
2019-03-23T04:09:53.689Z,1023.00
2019-03-23T04:10:53.679Z,1022.95
2019-03-23T04:11:53.666Z,1022.94
2019-03-23T04:12:53.662Z,1023.00
2019-03-23T04:13:53.647Z,1022.86
2019-03-23T04:14:53.635Z,1022.93
2019-03-23T04:15:53.630Z,1022.97
2019-03-23T04:16:53.647Z,1023.02
2019-03-23T04:17:53.608Z,1023.01
2019-03-23T04:18:53.597Z,1023.03
2019-03-23T04:19:53.576Z,1023.05
2019-03-23T04:20:53.565Z,1023.04
2019-03-23T04:21:53.556Z,1023.03
2019-03-23T04:22:53.551Z,1023.10
2019-03-23T04:23:53.532Z,1023.13
2019-03-23T04:24:53.521Z,1023.14
2019-03-23T04:25:53.510Z,1023.20
2019-03-23T04:26:53.499Z,1023.16
2019-03-23T04:27:53.502Z,1023.18
2019-03-23T04:28:53.480Z,1023.15
2019-03-23T04:29:53.465Z,1023.18
2019-03-23T04:30:53.455Z,1023.17
2019-03-23T04:31:53.444Z,1023.24
2019-03-23T04:32:53.431Z,1023.16
2019-03-23T04:33:53.428Z,1023.22
2019-03-23T04:34:53.411Z,1023.32
2019-03-23T04:35:53.401Z,1023.23
2019-03-23T04:36:53.386Z,1023.27
2019-03-23T04:37:53.377Z,1023.28
2019-03-23T04:38:53.372Z,1023.26
2019-03-23T04:39:53.355Z,1023.28
2019-03-23T04:40:53.341Z,1023.17
2019-03-23T04:41:53.336Z,1023.27
2019-03-23T04:42:53.319Z,1023.26
2019-03-23T04:43:53.320Z,1023.30
2019-03-23T04:44:53.296Z,1023.33
2019-03-23T04:45:53.286Z,1023.35
2019-03-23T04:46:53.274Z,1023.38
2019-03-23T04:47:53.265Z,1023.35
2019-03-23T04:48:53.262Z,1023.31
2019-03-23T04:49:53.243Z,1023.37
2019-03-23T04:50:53.237Z,1023.36
2019-03-23T04:51:53.225Z,1023.33
2019-03-23T04:52:53.209Z,1023.37
2019-03-23T04:53:53.204Z,1023.35
2019-03-23T04:54:53.198Z,1023.39
2019-03-23T04:55:53.174Z,1023.48
2019-03-23T04:56:53.165Z,1023.49
2019-03-23T04:57:53.158Z,1023.40
2019-03-23T04:58:53.153Z,1023.52
2019-03-23T04:59:53.131Z,1023.47
2019-03-23T05:00:53.119Z,1023.44
2019-03-23T05:01:53.111Z,1023.46
2019-03-23T05:02:53.096Z,1023.50
2019-03-23T05:03:53.097Z,1023.56
2019-03-23T05:04:53.073Z,1023.48
2019-03-23T05:05:53.063Z,1023.57
2019-03-23T05:06:53.052Z,1023.52
2019-03-23T05:07:53.039Z,1023.55
2019-03-23T05:08:53.037Z,1023.56
2019-03-23T05:09:53.017Z,1023.56
2019-03-23T05:10:53.007Z,1023.61
2019-03-23T05:11:52.995Z,1023.62
2019-03-23T05:12:52.985Z,1023.68
2019-03-23T05:13:52.982Z,1023.69
2019-03-23T05:14:52.965Z,1023.65
2019-03-23T05:15:52.952Z,1023.64
2019-03-23T05:16:52.940Z,1023.75
2019-03-23T05:17:52.928Z,1023.68
2019-03-23T05:18:52.926Z,1023.68
2019-03-23T05:19:52.905Z,1023.67
2019-03-23T05:20:52.901Z,1023.75
2019-03-23T05:21:52.884Z,1023.71
2019-03-23T05:22:52.872Z,1023.75
2019-03-23T05:23:52.878Z,1023.80
2019-03-23T05:24:52.850Z,1023.77
2019-03-23T05:25:52.843Z,1023.81
2019-03-23T05:26:52.830Z,1023.80
2019-03-23T05:27:52.817Z,1023.80
2019-03-23T05:28:52.813Z,1023.78
2019-03-23T05:29:52.795Z,1023.77
2019-03-23T05:30:52.782Z,1023.78
2019-03-23T05:31:52.774Z,1023.78
2019-03-23T05:32:52.760Z,1023.76
2019-03-23T05:33:52.804Z,1023.75
2019-03-23T05:34:52.763Z,1023.79
2019-03-23T05:35:52.727Z,1023.75
2019-03-23T05:36:52.716Z,1023.75
2019-03-23T05:37:52.707Z,1023.72
2019-03-23T05:38:52.707Z,1023.72
2019-03-23T05:39:52.682Z,1023.72
2019-03-23T05:40:52.672Z,1023.82
2019-03-23T05:41:52.662Z,1023.78
2019-03-23T05:42:52.648Z,1023.73
2019-03-23T05:43:52.646Z,1023.77
2019-03-23T05:44:52.629Z,1023.76
2019-03-23T05:45:52.622Z,1023.68
2019-03-23T05:46:54.336Z,1023.72
2019-03-23T05:47:52.595Z,1023.75
2019-03-23T05:48:52.593Z,1023.79
2019-03-23T05:49:52.575Z,1023.79
2019-03-23T05:50:52.560Z,1023.85
2019-03-23T05:51:52.552Z,1023.84
2019-03-23T05:52:52.537Z,1023.81
2019-03-23T05:53:52.535Z,1023.83
2019-03-23T05:54:52.517Z,1023.86
2019-03-23T05:55:52.506Z,1023.88
2019-03-23T05:56:52.496Z,1023.83
2019-03-23T05:57:52.482Z,1023.85
2019-03-23T05:58:52.480Z,1023.82
2019-03-23T05:59:52.459Z,1023.81
2019-03-23T06:00:52.450Z,1023.85
2019-03-23T06:01:52.442Z,1023.83
2019-03-23T06:02:52.427Z,1023.83
2019-03-23T06:03:52.426Z,1023.88
2019-03-23T06:04:52.404Z,1023.82
2019-03-23T06:05:52.392Z,1023.84
2019-03-23T06:06:52.385Z,1023.93
2019-03-23T06:07:52.371Z,1023.87
2019-03-23T06:08:55.238Z,1023.91
2019-03-23T06:09:52.350Z,1023.90
2019-03-23T06:10:52.338Z,1023.92
2019-03-23T06:11:52.330Z,1023.88
2019-03-23T06:12:52.317Z,1023.96
2019-03-23T06:13:52.313Z,1024.00
2019-03-23T06:14:52.294Z,1023.98
2019-03-23T06:15:52.283Z,1024.01
2019-03-23T06:16:52.272Z,1023.95
2019-03-23T06:17:52.260Z,1023.98
2019-03-23T06:18:52.259Z,1024.00
2019-03-23T06:19:52.236Z,1023.98
2019-03-23T06:20:52.226Z,1023.95
2019-03-23T06:21:52.215Z,1023.99
2019-03-23T06:22:52.204Z,1023.98
2019-03-23T06:23:52.201Z,1024.02
2019-03-23T06:24:52.183Z,1024.02
2019-03-23T06:25:52.170Z,1024.05
2019-03-23T06:26:52.159Z,1024.10
2019-03-23T06:27:52.148Z,1024.07
2019-03-23T06:28:52.147Z,1024.10
2019-03-23T06:29:52.129Z,1024.12
2019-03-23T06:30:52.116Z,1024.11
2019-03-23T06:31:52.105Z,1024.12
2019-03-23T06:32:52.093Z,1024.09
2019-03-23T06:33:52.093Z,1024.09
2019-03-23T06:34:52.073Z,1024.09
2019-03-23T06:35:52.059Z,1024.16
2019-03-23T06:36:52.049Z,1024.10
2019-03-23T06:37:52.035Z,1024.11
2019-03-23T06:38:52.025Z,1024.03
2019-03-23T06:39:52.025Z,1024.03
2019-03-23T06:40:52.004Z,1024.07
2019-03-23T06:41:51.994Z,1024.13
2019-03-23T06:42:59.677Z,1024.10
2019-03-23T06:43:52.968Z,1024.09
2019-03-23T06:44:51.966Z,1024.10
2019-03-23T06:45:51.953Z,1024.08
2019-03-23T06:46:51.938Z,1024.13
2019-03-23T06:47:51.926Z,1024.02
2019-03-23T06:48:51.914Z,1024.01
2019-03-23T06:49:51.911Z,1024.05
2019-03-23T06:50:51.895Z,1024.12
2019-03-23T06:51:51.881Z,1024.12
2019-03-23T06:52:51.874Z,1024.12
2019-03-23T06:53:51.860Z,1024.07
2019-03-23T06:54:51.855Z,1024.10
2019-03-23T06:55:51.838Z,1024.12
2019-03-23T06:56:51.825Z,1024.11
2019-03-23T06:57:51.815Z,1024.15
2019-03-23T06:58:51.804Z,1024.15
2019-03-23T06:59:51.805Z,1024.11
2019-03-23T07:00:51.792Z,1024.16
2019-03-23T07:01:51.772Z,1024.14
2019-03-23T07:02:51.760Z,1024.15
2019-03-23T07:03:51.749Z,1024.14
2019-03-23T07:04:51.751Z,1024.10
2019-03-23T07:05:51.730Z,1024.16
2019-03-23T07:06:51.720Z,1024.15
2019-03-23T07:07:51.706Z,1024.14
2019-03-23T07:08:51.699Z,1024.15
2019-03-23T07:09:51.729Z,1024.16
2019-03-23T07:10:51.670Z,1024.20
2019-03-23T07:11:51.660Z,1024.20
2019-03-23T07:12:51.649Z,1024.19
2019-03-23T07:13:51.639Z,1024.18
2019-03-23T07:14:51.640Z,1024.23
2019-03-23T07:15:51.619Z,1024.21
2019-03-23T07:16:51.606Z,1024.20
2019-03-23T07:17:51.597Z,1024.21
2019-03-23T07:18:51.582Z,1024.20
2019-03-23T07:19:51.584Z,1024.20
2019-03-23T07:20:51.562Z,1024.22
2019-03-23T07:21:51.556Z,1024.29
2019-03-23T07:22:51.540Z,1024.24
2019-03-23T07:23:51.544Z,1024.26
2019-03-23T07:24:51.527Z,1024.22
2019-03-23T07:25:51.505Z,1024.23
2019-03-23T07:26:51.492Z,1024.23
2019-03-23T07:27:51.478Z,1024.29
2019-03-23T07:28:51.469Z,1024.30
2019-03-23T07:29:51.476Z,1024.33
2019-03-23T07:30:51.453Z,1024.34
2019-03-23T07:31:51.440Z,1024.29
2019-03-23T07:32:51.430Z,1024.31
2019-03-23T07:33:51.432Z,1024.36
2019-03-23T07:34:51.404Z,1024.27
2019-03-23T07:35:51.404Z,1024.30
2019-03-23T07:36:51.381Z,1024.32
2019-03-23T07:37:51.370Z,1024.37
2019-03-23T07:38:51.360Z,1024.35
2019-03-23T07:39:51.351Z,1024.35
2019-03-23T07:40:51.345Z,1024.35
2019-03-23T07:41:51.327Z,1024.35
2019-03-23T07:42:51.314Z,1024.33
2019-03-23T07:43:51.305Z,1024.41
2019-03-23T07:44:51.290Z,1024.47
2019-03-23T07:45:51.293Z,1024.40
2019-03-23T07:46:51.300Z,1024.50
2019-03-23T07:47:51.261Z,1024.47
2019-03-23T07:48:51.246Z,1024.51
2019-03-23T07:49:51.235Z,1024.40
2019-03-23T07:50:51.233Z,1024.46
2019-03-23T07:51:51.216Z,1024.49
2019-03-23T07:52:51.209Z,1024.46
2019-03-23T07:53:51.189Z,1024.48
2019-03-23T07:54:51.179Z,1024.55
2019-03-23T07:55:51.184Z,1024.51
2019-03-23T07:56:51.160Z,1024.55
2019-03-23T07:57:51.149Z,1024.55
2019-03-23T07:58:51.156Z,1024.57
2019-03-23T07:59:51.125Z,1024.63
2019-03-23T08:00:51.114Z,1024.65
2019-03-23T08:01:51.116Z,1024.59
2019-03-23T08:02:51.108Z,1024.56
2019-03-23T08:03:51.079Z,1024.62
2019-03-23T08:04:51.073Z,1024.64
2019-03-23T08:05:51.056Z,1024.59
2019-03-23T08:06:51.054Z,1024.62
2019-03-23T08:07:51.039Z,1024.60
2019-03-23T08:08:51.026Z,1024.65
2019-03-23T08:09:51.013Z,1024.65
2019-03-23T08:10:51.002Z,1024.64
2019-03-23T08:11:51.000Z,1024.64
2019-03-23T08:12:50.981Z,1024.65
2019-03-23T08:13:50.968Z,1024.61
2019-03-23T08:14:50.956Z,1024.66
2019-03-23T08:15:50.946Z,1024.69
2019-03-23T08:16:50.947Z,1024.65
2019-03-23T08:17:50.929Z,1024.58
2019-03-23T08:18:50.913Z,1024.62
2019-03-23T08:19:50.902Z,1024.66
2019-03-23T08:20:50.892Z,1024.66
2019-03-23T08:21:50.890Z,1024.69
2019-03-23T08:22:50.868Z,1024.66
2019-03-23T08:23:50.860Z,1024.69
2019-03-23T08:24:50.845Z,1024.68
2019-03-23T08:25:50.838Z,1024.64
2019-03-23T08:26:50.835Z,1024.70
2019-03-23T08:27:50.811Z,1024.77
2019-03-23T08:28:50.804Z,1024.67
2019-03-23T08:29:50.788Z,1024.71
2019-03-23T08:30:50.777Z,1024.69
2019-03-23T08:31:50.780Z,1024.74
2019-03-23T08:32:50.755Z,1024.75
2019-03-23T08:33:52.060Z,1024.81
2019-03-23T08:34:50.735Z,1024.73
2019-03-23T08:35:50.726Z,1024.75
2019-03-23T08:36:50.720Z,1024.69
2019-03-23T08:37:50.698Z,1024.70
2019-03-23T08:38:51.756Z,1024.73
2019-03-23T08:39:50.681Z,1024.68
2019-03-23T08:40:50.670Z,1024.70
2019-03-23T08:41:50.670Z,1024.70
2019-03-23T08:42:50.657Z,1024.74
2019-03-23T08:43:50.632Z,1024.71
2019-03-23T08:44:50.620Z,1024.71
2019-03-23T08:45:51.203Z,1024.72
2019-03-23T08:46:50.608Z,1024.74
2019-03-23T08:47:50.596Z,1024.67
2019-03-23T08:48:50.577Z,1024.80
2019-03-23T08:49:50.571Z,1024.76
2019-03-23T08:50:50.559Z,1024.75
2019-03-23T08:51:50.553Z,1024.71
2019-03-23T08:52:50.533Z,1024.71
2019-03-23T08:53:50.527Z,1024.72
2019-03-23T08:54:50.510Z,1024.70
2019-03-23T08:55:50.501Z,1024.67
2019-03-23T08:56:50.499Z,1024.74
2019-03-23T08:57:50.478Z,1024.78
2019-03-23T08:58:50.469Z,1024.76
2019-03-23T08:59:50.454Z,1024.73
2019-03-23T09:00:50.446Z,1024.74
2019-03-23T09:01:50.441Z,1024.76
2019-03-23T09:02:50.420Z,1024.73
2019-03-23T09:03:52.600Z,1024.75
2019-03-23T09:04:50.399Z,1024.81
2019-03-23T09:05:50.409Z,1024.72
2019-03-23T09:06:50.383Z,1024.72
2019-03-23T09:07:52.534Z,1024.76
2019-03-23T09:08:50.356Z,1024.75
2019-03-23T09:09:58.822Z,1024.74
2019-03-23T09:10:51.330Z,1024.75
2019-03-23T09:11:50.336Z,1024.72
2019-03-23T09:12:50.310Z,1024.82
2019-03-23T09:13:50.296Z,1024.83
2019-03-23T09:14:50.290Z,1024.82
2019-03-23T09:15:50.275Z,1024.86
2019-03-23T09:16:50.274Z,1024.87
2019-03-23T09:17:50.254Z,1024.86
2019-03-23T09:18:50.242Z,1024.92
2019-03-23T09:19:50.229Z,1024.86
2019-03-23T09:20:50.218Z,1024.89
2019-03-23T09:21:50.222Z,1024.86
2019-03-23T09:22:50.197Z,1024.88
2019-03-23T09:23:50.186Z,1024.87
2019-03-23T09:24:50.177Z,1024.80
2019-03-23T09:25:50.162Z,1024.87
2019-03-23T09:26:50.167Z,1024.84
2019-03-23T09:27:50.140Z,1024.77
2019-03-23T09:28:50.136Z,1024.84
2019-03-23T09:29:50.119Z,1024.82
2019-03-23T09:30:50.109Z,1024.78
2019-03-23T09:31:50.110Z,1024.77
2019-03-23T09:32:50.084Z,1024.83
2019-03-23T09:33:50.076Z,1024.80
2019-03-23T09:34:50.063Z,1024.73
2019-03-23T09:35:50.050Z,1024.75
2019-03-23T09:36:50.041Z,1024.81
2019-03-23T09:37:50.039Z,1024.83
2019-03-23T09:38:50.017Z,1024.82
2019-03-23T09:39:50.005Z,1024.80
2019-03-23T09:40:49.994Z,1024.81
2019-03-23T09:41:49.982Z,1024.85
2019-03-23T09:42:49.982Z,1024.83
2019-03-23T09:43:49.960Z,1024.85
2019-03-23T09:44:49.950Z,1024.84
2019-03-23T09:45:49.939Z,1024.80
2019-03-23T09:46:49.931Z,1024.76
2019-03-23T09:47:49.925Z,1024.82
2019-03-23T09:48:49.911Z,1024.82
2019-03-23T09:49:49.894Z,1024.85
2019-03-23T09:50:49.886Z,1024.81
2019-03-23T09:51:49.874Z,1024.85
2019-03-23T09:52:49.873Z,1024.84
2019-03-23T09:53:49.850Z,1024.87
2019-03-23T09:54:49.839Z,1024.89
2019-03-23T09:55:49.828Z,1024.82
2019-03-23T09:56:49.816Z,1024.90
2019-03-23T09:57:49.815Z,1024.83
2019-03-23T09:58:49.794Z,1024.88
2019-03-23T09:59:49.782Z,1024.89
2019-03-23T10:00:49.773Z,1024.88
2019-03-23T10:01:49.761Z,1024.90
2019-03-23T10:02:49.757Z,1024.86
2019-03-23T10:03:49.741Z,1024.82
2019-03-23T10:04:49.729Z,1024.87
2019-03-23T10:05:49.716Z,1024.86
2019-03-23T10:06:49.705Z,1024.86
2019-03-23T10:07:49.748Z,1024.85
2019-03-23T10:08:49.685Z,1024.84
2019-03-23T10:09:49.676Z,1024.83
2019-03-23T10:10:49.663Z,1024.80
2019-03-23T10:11:49.649Z,1024.75
2019-03-23T10:12:49.648Z,1024.81
2019-03-23T10:13:49.627Z,1024.81
2019-03-23T10:14:49.615Z,1024.86
2019-03-23T10:15:49.606Z,1024.81
2019-03-23T10:16:49.597Z,1024.82
2019-03-23T10:17:49.592Z,1024.84
2019-03-23T10:18:49.571Z,1024.80
2019-03-23T10:19:49.564Z,1024.81
2019-03-23T10:20:49.549Z,1024.81
2019-03-23T10:21:49.538Z,1024.75
2019-03-23T10:22:49.542Z,1024.79
2019-03-23T10:23:49.526Z,1024.79
2019-03-23T10:24:49.503Z,1024.79
2019-03-23T10:25:49.494Z,1024.79
2019-03-23T10:26:49.482Z,1024.82
2019-03-23T10:27:49.489Z,1024.81
2019-03-23T10:28:49.472Z,1024.83
2019-03-23T10:29:49.526Z,1024.81
2019-03-23T10:30:49.439Z,1024.83
2019-03-23T10:31:49.454Z,1024.86
2019-03-23T10:32:49.419Z,1024.87
2019-03-23T10:33:49.417Z,1024.85
2019-03-23T10:34:49.414Z,1024.85
2019-03-23T10:35:49.391Z,1024.87
2019-03-23T10:36:49.383Z,1024.91
2019-03-23T10:37:49.368Z,1024.90
2019-03-23T10:38:49.369Z,1024.90
2019-03-23T10:39:49.339Z,1024.91
2019-03-23T10:40:49.328Z,1024.87
2019-03-23T10:41:49.386Z,1024.85
2019-03-23T10:42:49.307Z,1024.83
2019-03-23T10:43:49.306Z,1024.89
2019-03-23T10:44:49.282Z,1024.87
2019-03-23T10:45:49.271Z,1024.91
2019-03-23T10:46:49.268Z,1024.87
2019-03-23T10:47:49.404Z,1024.89
2019-03-23T10:48:49.275Z,1024.86
2019-03-23T10:49:49.226Z,1024.81
2019-03-23T10:50:49.215Z,1024.82
2019-03-23T10:51:49.212Z,1024.84
2019-03-23T10:52:49.193Z,1024.84
2019-03-23T10:53:49.193Z,1024.82
2019-03-23T10:54:49.173Z,1024.81
2019-03-23T10:55:49.160Z,1024.77
2019-03-23T10:56:49.169Z,1024.81
2019-03-23T10:57:49.142Z,1024.81
2019-03-23T10:58:49.137Z,1024.83
2019-03-23T10:59:49.118Z,1024.81
2019-03-23T11:00:49.131Z,1024.82
2019-03-23T11:01:49.100Z,1024.73
2019-03-23T11:02:49.082Z,1024.69
2019-03-23T11:03:49.091Z,1024.75
2019-03-23T11:04:49.061Z,1024.72
2019-03-23T11:05:49.079Z,1024.74
2019-03-23T11:06:49.043Z,1024.77
2019-03-23T11:07:49.038Z,1024.79
2019-03-23T11:08:49.030Z,1024.79
2019-03-23T11:09:49.017Z,1024.75
2019-03-23T11:10:48.996Z,1024.77
2019-03-23T11:11:48.990Z,1024.75
2019-03-23T11:12:48.978Z,1024.74
2019-03-23T11:13:48.961Z,1024.69
2019-03-23T11:14:48.961Z,1024.72
2019-03-23T11:15:48.945Z,1024.75
2019-03-23T11:16:48.934Z,1024.80
2019-03-23T11:17:48.914Z,1024.73
2019-03-23T11:18:48.919Z,1024.76
2019-03-23T11:19:48.903Z,1024.77
2019-03-23T11:20:48.880Z,1024.78
2019-03-23T11:21:48.870Z,1024.75
2019-03-23T11:22:48.864Z,1024.83
2019-03-23T11:23:48.847Z,1024.84
2019-03-23T11:24:48.846Z,1024.86
2019-03-23T11:25:48.832Z,1024.87
2019-03-23T11:26:48.832Z,1024.90
2019-03-23T11:27:48.802Z,1024.89
2019-03-23T11:28:48.791Z,1024.96
2019-03-23T11:29:48.790Z,1024.92
2019-03-23T11:30:48.769Z,1024.94
2019-03-23T11:31:48.761Z,1024.91
2019-03-23T11:32:48.747Z,1024.98
2019-03-23T11:33:48.737Z,1024.98
2019-03-23T11:34:48.738Z,1024.96
2019-03-23T11:35:57.431Z,1024.95
2019-03-23T11:36:49.752Z,1024.93
2019-03-23T11:37:48.948Z,1024.91
2019-03-23T11:38:48.679Z,1024.86
2019-03-23T11:39:48.680Z,1024.96
2019-03-23T11:40:54.986Z,1024.91
2019-03-23T11:41:49.645Z,1024.92
2019-03-23T11:42:50.147Z,1024.92
2019-03-23T11:43:48.632Z,1024.93
2019-03-23T11:44:48.698Z,1024.89
2019-03-23T11:45:48.606Z,1024.89
2019-03-23T11:46:48.594Z,1024.90
2019-03-23T11:47:48.612Z,1024.90
2019-03-23T11:48:48.568Z,1024.95
2019-03-23T11:49:48.571Z,1024.88
2019-03-23T11:50:48.547Z,1024.89
2019-03-23T11:51:48.535Z,1024.93
2019-03-23T11:52:48.524Z,1024.85
2019-03-23T11:53:48.515Z,1024.84
2019-03-23T11:54:48.502Z,1024.93
2019-03-23T11:55:48.500Z,1024.90
2019-03-23T11:56:48.480Z,1024.97
2019-03-23T11:57:48.472Z,1024.92
2019-03-23T11:58:48.463Z,1024.95
2019-03-23T11:59:48.448Z,1024.93
2019-03-23T12:00:48.457Z,1024.90
2019-03-23T12:01:51.955Z,1024.90
2019-03-23T12:02:48.411Z,1024.92
2019-03-23T12:03:48.403Z,1024.93
2019-03-23T12:04:48.396Z,1024.94
2019-03-23T12:05:48.389Z,1024.97